createdAt,value
2018-03-24T00:02:27.356Z,2.30
2018-03-24T00:04:54.813Z,2.30
2018-03-24T00:07:22.370Z,2.20
2018-03-24T00:09:50.599Z,2.10
2018-03-24T00:12:18.070Z,2.10
2018-03-24T00:14:45.542Z,2.00
2018-03-24T00:17:13.458Z,1.90
2018-03-24T00:19:41.956Z,1.80
2018-03-24T00:22:09.476Z,1.80
2018-03-24T00:24:37.553Z,1.80
2018-03-24T00:27:05.014Z,1.80
2018-03-24T00:29:34.101Z,1.80
2018-03-24T00:32:02.960Z,1.80
2018-03-24T00:34:30.825Z,1.80
2018-03-24T00:36:59.154Z,1.80
2018-03-24T00:39:27.643Z,1.70
2018-03-24T00:41:55.888Z,1.70
2018-03-24T00:44:23.662Z,1.70
2018-03-24T00:46:52.271Z,1.60
2018-03-24T00:49:21.862Z,1.60
2018-03-24T00:51:50.098Z,1.60
2018-03-24T00:54:17.558Z,1.60
2018-03-24T00:56:45.024Z,1.60
2018-03-24T00:59:12.494Z,1.50
2018-03-24T01:01:39.959Z,1.50
2018-03-24T01:04:07.422Z,1.40
2018-03-24T01:06:34.977Z,1.40
2018-03-24T01:09:02.603Z,1.40
2018-03-24T01:11:30.061Z,1.30
2018-03-24T01:13:58.482Z,1.20
2018-03-24T01:16:26.370Z,1.20
2018-03-24T01:18:53.826Z,1.20
2018-03-24T01:21:22.323Z,1.20
2018-03-24T01:23:51.159Z,1.10
2018-03-24T01:26:19.687Z,1.10
2018-03-24T01:28:47.919Z,1.10
2018-03-24T01:31:15.383Z,1.10
2018-03-24T01:33:42.830Z,1.00
2018-03-24T01:36:10.306Z,1.00
2018-03-24T01:38:38.134Z,1.00
2018-03-24T01:41:06.102Z,1.00
2018-03-24T01:43:33.628Z,0.90
2018-03-24T01:46:01.334Z,0.90
2018-03-24T01:48:28.848Z,0.80
2018-03-24T01:50:57.935Z,0.70
2018-03-24T01:53:38.183Z,0.60
2018-03-24T01:56:06.399Z,0.60
2018-03-24T01:58:34.053Z,0.50
2018-03-24T02:01:03.210Z,0.40
2018-03-24T02:03:31.386Z,0.40
2018-03-24T02:05:58.852Z,0.40
2018-03-24T02:08:26.322Z,0.30
2018-03-24T02:10:54.095Z,0.30
2018-03-24T02:13:22.314Z,0.20
2018-03-24T02:15:50.530Z,0.20
2018-03-24T02:18:18.291Z,0.10
2018-03-24T02:20:46.528Z,0.10
2018-03-24T02:23:13.978Z,0.00
2018-03-24T02:25:41.548Z,-0.10
2018-03-24T02:28:09.871Z,-0.10
2018-03-24T02:30:37.341Z,-0.20
2018-03-24T02:33:07.141Z,-0.30
2018-03-24T02:35:34.723Z,-0.30
2018-03-24T02:38:03.866Z,-0.40
2018-03-24T02:40:31.359Z,-0.40
2018-03-24T02:42:59.431Z,-0.40
2018-03-24T02:45:26.997Z,-0.40
2018-03-24T02:47:54.455Z,-0.50
2018-03-24T02:50:21.914Z,-0.50
2018-03-24T02:52:50.142Z,-0.60
2018-03-24T02:55:17.868Z,-0.60
2018-03-24T02:57:46.128Z,-0.60
2018-03-24T03:00:13.583Z,-0.60
2018-03-24T03:02:41.247Z,-0.60
2018-03-24T03:05:08.706Z,-0.70
2018-03-24T03:07:36.174Z,-0.70
2018-03-24T03:10:03.648Z,-0.70
2018-03-24T03:12:32.599Z,-0.70
2018-03-24T03:15:00.065Z,-0.70
2018-03-24T03:17:27.873Z,-0.70
2018-03-24T03:19:55.313Z,-0.80
2018-03-24T03:22:24.147Z,-0.80
2018-03-24T03:24:52.716Z,-0.80
2018-03-24T03:27:20.191Z,-0.80
2018-03-24T03:29:47.647Z,-0.90
2018-03-24T03:32:25.019Z,-0.90
2018-03-24T03:34:52.469Z,-0.90
2018-03-24T03:37:19.938Z,-1.00
2018-03-24T03:39:47.614Z,-1.00
2018-03-24T03:42:15.078Z,-1.00
2018-03-24T03:44:42.571Z,-1.00
2018-03-24T03:47:10.035Z,-1.00
2018-03-24T03:49:37.590Z,-1.00
2018-03-24T03:52:05.679Z,-1.00
2018-03-24T03:54:33.929Z,-1.10
2018-03-24T03:57:01.711Z,-1.10
2018-03-24T03:59:29.173Z,-1.10
2018-03-24T04:01:56.641Z,-1.10
2018-03-24T04:04:25.598Z,-1.10
2018-03-24T04:06:53.071Z,-1.20
2018-03-24T04:09:21.223Z,-1.20
2018-03-24T04:11:48.702Z,-1.20
2018-03-24T04:14:17.208Z,-1.20
2018-03-24T04:16:45.436Z,-1.20
2018-03-24T04:19:12.905Z,-1.20
2018-03-24T04:21:40.538Z,-1.20
2018-03-24T04:24:08.767Z,-1.30
2018-03-24T04:26:36.237Z,-1.30
2018-03-24T04:29:03.879Z,-1.30
2018-03-24T04:31:31.704Z,-1.30
2018-03-24T04:33:59.218Z,-1.30
2018-03-24T04:36:27.514Z,-1.30
2018-03-24T04:38:55.734Z,-1.30
2018-03-24T04:41:24.697Z,-1.30
2018-03-24T04:43:52.160Z,-1.30
2018-03-24T04:46:19.630Z,-1.40
2018-03-24T04:48:47.314Z,-1.40
2018-03-24T04:51:14.776Z,-1.40
2018-03-24T04:53:42.407Z,-1.30
2018-03-24T04:56:09.967Z,-1.30
2018-03-24T04:58:38.035Z,-1.30
2018-03-24T05:01:05.874Z,-1.30
2018-03-24T05:03:34.093Z,-1.30
2018-03-24T05:06:01.590Z,-1.30
2018-03-24T05:08:29.053Z,-1.30
2018-03-24T05:10:56.606Z,-1.30
2018-03-24T05:13:24.059Z,-1.30
2018-03-24T05:15:51.623Z,-1.30
2018-03-24T05:18:19.414Z,-1.30
2018-03-24T05:20:47.642Z,-1.20
2018-03-24T05:23:15.115Z,-1.20
2018-03-24T05:25:42.574Z,-1.20
2018-03-24T05:28:10.348Z,-1.20
2018-03-24T05:30:38.630Z,-1.20
2018-03-24T05:33:07.942Z,-1.10
2018-03-24T05:35:36.181Z,-1.10
2018-03-24T05:38:04.058Z,-1.10
2018-03-24T05:40:32.984Z,-1.00
2018-03-24T05:43:01.430Z,-0.80
2018-03-24T05:45:29.003Z,-0.90
2018-03-24T05:47:56.466Z,-0.80
2018-03-24T05:50:25.355Z,-0.70
2018-03-24T05:52:52.915Z,-0.70
2018-03-24T05:55:20.374Z,-0.60
2018-03-24T05:57:47.838Z,-0.50
2018-03-24T06:00:17.026Z,-0.40
2018-03-24T06:02:44.495Z,-0.50
2018-03-24T06:05:11.952Z,-0.40
2018-03-24T06:07:39.614Z,-0.30
2018-03-24T06:10:07.171Z,-0.20
2018-03-24T06:12:35.454Z,-0.10
2018-03-24T06:15:03.691Z,0.00
2018-03-24T06:17:31.142Z,0.00
2018-03-24T06:19:59.076Z,0.10
2018-03-24T06:22:28.374Z,0.30
2018-03-24T06:24:56.590Z,0.40
2018-03-24T06:27:24.061Z,0.30
2018-03-24T06:29:51.523Z,0.40
2018-03-24T06:32:18.990Z,0.50
2018-03-24T06:34:46.442Z,0.60
2018-03-24T06:37:17.755Z,0.70
2018-03-24T06:39:45.979Z,0.80
2018-03-24T06:42:13.439Z,0.90
2018-03-24T06:44:41.764Z,1.00
2018-03-24T06:47:12.045Z,1.20
2018-03-24T06:49:39.513Z,1.10
2018-03-24T06:52:08.541Z,1.30
2018-03-24T06:54:35.993Z,1.20
2018-03-24T06:57:03.463Z,1.30
2018-03-24T06:59:31.031Z,1.40
2018-03-24T07:01:59.034Z,1.40
2018-03-24T07:04:26.486Z,1.60
2018-03-24T07:06:54.366Z,1.70
2018-03-24T07:09:22.039Z,1.80
2018-03-24T07:11:49.865Z,1.90
2018-03-24T07:14:17.398Z,1.90
2018-03-24T07:16:45.208Z,2.00
2018-03-24T07:19:12.783Z,2.00
2018-03-24T07:21:41.014Z,2.30
2018-03-24T07:24:08.998Z,2.30
2018-03-24T07:26:36.471Z,2.50
2018-03-24T07:29:03.927Z,2.50
2018-03-24T07:31:31.511Z,2.70
2018-03-24T07:33:59.743Z,2.90
2018-03-24T07:36:29.706Z,2.90
2018-03-24T07:38:59.056Z,3.00
2018-03-24T07:41:27.812Z,2.90
2018-03-24T07:43:56.067Z,3.00
2018-03-24T07:46:24.096Z,3.00
2018-03-24T07:48:52.302Z,3.20
2018-03-24T07:51:20.482Z,3.10
2018-03-24T07:53:50.117Z,3.30
2018-03-24T07:56:19.026Z,3.40
2018-03-24T07:58:46.490Z,3.40
2018-03-24T08:01:13.999Z,3.60
2018-03-24T08:03:42.236Z,3.70
2018-03-24T08:06:09.798Z,3.70
2018-03-24T08:08:38.219Z,3.80
2018-03-24T08:11:06.449Z,3.90
2018-03-24T08:13:33.918Z,3.90
2018-03-24T08:16:01.383Z,4.10
2018-03-24T08:18:29.670Z,4.10
2018-03-24T08:20:57.207Z,4.20
2018-03-24T08:23:25.311Z,4.40
2018-03-24T08:25:52.766Z,4.60
2018-03-24T08:28:20.741Z,4.70
2018-03-24T08:30:48.515Z,4.80
2018-03-24T08:33:17.055Z,5.00
2018-03-24T08:35:45.307Z,5.10
2018-03-24T08:38:13.539Z,5.00
2018-03-24T08:40:41.339Z,5.00
2018-03-24T08:43:09.655Z,5.00
2018-03-24T08:45:37.094Z,5.00
2018-03-24T08:48:05.138Z,5.00
2018-03-24T08:50:33.658Z,5.10
2018-03-24T08:53:01.518Z,5.10
2018-03-24T08:55:29.457Z,5.20
2018-03-24T08:57:57.654Z,5.10
2018-03-24T09:00:25.114Z,5.10
2018-03-24T09:02:52.578Z,5.10
2018-03-24T09:05:20.031Z,5.10
2018-03-24T09:07:47.486Z,5.30
2018-03-24T09:10:16.811Z,5.40
2018-03-24T09:12:45.720Z,5.40
2018-03-24T09:15:13.214Z,5.50
2018-03-24T09:17:40.724Z,5.60
2018-03-24T09:20:08.886Z,5.60
2018-03-24T09:22:36.723Z,5.70
2018-03-24T09:25:05.182Z,5.90
2018-03-24T09:27:33.660Z,5.80
2018-03-24T09:30:01.136Z,5.80
2018-03-24T09:32:28.587Z,5.90
2018-03-24T09:34:56.557Z,5.90
2018-03-24T09:37:24.027Z,6.00
2018-03-24T09:39:52.444Z,6.20
2018-03-24T09:42:19.902Z,6.10
2018-03-24T09:44:47.359Z,6.20
2018-03-24T09:47:14.828Z,6.40
2018-03-24T09:49:42.291Z,6.60
2018-03-24T09:52:09.818Z,6.70
2018-03-24T09:54:38.082Z,7.20
2018-03-24T09:57:05.555Z,7.20
2018-03-24T09:59:33.019Z,7.40
2018-03-24T10:02:00.534Z,7.50
2018-03-24T10:04:28.710Z,7.50
2018-03-24T10:06:57.635Z,7.60
2018-03-24T10:09:25.876Z,7.40
2018-03-24T10:11:54.158Z,7.40
2018-03-24T10:14:21.742Z,7.50
2018-03-24T10:16:49.963Z,7.90
2018-03-24T10:19:18.371Z,7.90
2018-03-24T10:25:03.628Z,7.70
2018-03-24T10:27:31.175Z,7.80
2018-03-24T10:29:58.635Z,7.70
2018-03-24T10:32:26.103Z,7.70
2018-03-24T10:34:59.714Z,7.80
2018-03-24T10:37:27.195Z,7.80
2018-03-24T10:39:54.647Z,8.00
2018-03-24T10:42:22.640Z,8.40
2018-03-24T10:44:50.102Z,8.50
2018-03-24T10:47:17.659Z,8.50
2018-03-24T10:49:45.839Z,8.50
2018-03-24T10:52:13.408Z,8.40
2018-03-24T10:54:41.680Z,8.60
2018-03-24T10:57:09.130Z,8.60
2018-03-24T10:59:36.678Z,8.50
2018-03-24T11:02:04.134Z,8.50
2018-03-24T11:04:31.690Z,8.50
2018-03-24T11:06:59.261Z,8.50
2018-03-24T11:09:27.870Z,8.60
2018-03-24T11:11:55.407Z,8.50
2018-03-24T11:14:23.663Z,8.70
2018-03-24T11:16:51.146Z,8.60
2018-03-24T11:19:18.658Z,8.60
2018-03-24T11:21:46.106Z,8.80
2018-03-24T11:24:13.986Z,9.00
2018-03-24T11:26:42.026Z,9.20
2018-03-24T11:29:10.264Z,9.30
2018-03-24T11:31:38.115Z,9.40
2018-03-24T11:34:05.906Z,9.40
2018-03-24T11:36:33.729Z,9.70
2018-03-24T11:39:01.267Z,9.60
2018-03-24T11:41:29.516Z,9.50
2018-03-24T11:43:56.976Z,9.50
2018-03-24T11:46:24.522Z,9.40
2018-03-24T11:48:52.382Z,9.30
2018-03-24T11:51:20.365Z,9.20
2018-03-24T11:53:47.827Z,9.00
2018-03-24T11:56:15.287Z,9.00
2018-03-24T11:58:43.059Z,9.00
2018-03-24T12:01:11.414Z,9.00
2018-03-24T12:03:39.017Z,9.00
2018-03-24T12:06:06.458Z,9.00
2018-03-24T12:08:33.932Z,9.10
2018-03-24T12:11:02.153Z,9.20
2018-03-24T12:13:29.612Z,9.10
2018-03-24T12:15:57.130Z,9.20
2018-03-24T12:18:26.066Z,9.40
2018-03-24T12:20:53.552Z,9.40
2018-03-24T12:23:21.494Z,9.50
2018-03-24T12:25:48.978Z,9.60
2018-03-24T12:28:17.175Z,9.60
2018-03-24T12:30:45.422Z,9.60
2018-03-24T12:33:12.888Z,9.60
2018-03-24T12:35:40.350Z,9.70
2018-03-24T12:38:08.043Z,9.70
2018-03-24T12:40:35.839Z,10.00
2018-03-24T12:43:03.323Z,10.00
2018-03-24T12:45:31.470Z,10.00
2018-03-24T12:47:58.934Z,9.90
2018-03-24T12:50:26.398Z,9.80
2018-03-24T12:52:53.858Z,9.50
2018-03-24T12:55:21.322Z,9.60
2018-03-24T12:57:48.935Z,9.70
2018-03-24T13:00:16.564Z,9.80
2018-03-24T13:02:44.010Z,9.80
2018-03-24T13:05:11.462Z,9.80
2018-03-24T13:07:39.169Z,9.90
2018-03-24T13:10:07.399Z,9.90
2018-03-24T13:12:34.855Z,9.90
2018-03-24T13:15:02.319Z,9.90
2018-03-24T13:17:30.298Z,9.90
2018-03-24T13:19:57.764Z,9.80
2018-03-24T13:22:25.419Z,9.80
2018-03-24T13:24:52.883Z,9.80
2018-03-24T13:27:20.338Z,9.90
2018-03-24T13:29:47.808Z,9.90
2018-03-24T13:32:16.854Z,9.90
2018-03-24T13:34:44.558Z,9.80
2018-03-24T13:37:12.011Z,9.90
2018-03-24T13:39:39.778Z,9.90
2018-03-24T13:42:07.226Z,10.00
2018-03-24T13:44:34.686Z,10.10
2018-03-24T13:47:02.159Z,10.00
2018-03-24T13:49:30.638Z,9.90
2018-03-24T13:51:58.966Z,9.90
2018-03-24T13:54:26.426Z,9.90
2018-03-24T13:56:54.950Z,10.00
2018-03-24T13:59:22.922Z,10.10
2018-03-24T14:01:50.595Z,10.10
2018-03-24T14:04:18.858Z,10.00
2018-03-24T14:06:46.330Z,10.00
2018-03-24T14:09:14.088Z,10.00
2018-03-24T14:11:42.354Z,9.90
2018-03-24T14:14:11.410Z,9.90
2018-03-24T14:16:38.866Z,10.00
2018-03-24T14:19:06.375Z,10.10
2018-03-24T14:21:34.566Z,10.10
2018-03-24T14:24:03.123Z,10.10
2018-03-24T14:26:30.600Z,10.10
2018-03-24T14:28:58.564Z,10.10
2018-03-24T14:31:26.866Z,10.00
2018-03-24T14:33:55.097Z,10.00
2018-03-24T14:36:22.550Z,9.90
2018-03-24T14:38:50.036Z,10.00
2018-03-24T14:41:17.491Z,10.10
2018-03-24T14:43:44.969Z,10.00
2018-03-24T14:46:13.850Z,9.80
2018-03-24T14:48:42.054Z,9.80
2018-03-24T14:51:09.679Z,9.80
2018-03-24T14:53:37.134Z,9.80
2018-03-24T14:56:04.597Z,9.80
2018-03-24T14:58:32.155Z,9.80
2018-03-24T15:00:59.726Z,9.70
2018-03-24T15:03:27.194Z,9.70
2018-03-24T15:05:56.887Z,9.70
2018-03-24T15:08:24.437Z,9.70
2018-03-24T15:10:51.907Z,9.80
2018-03-24T15:13:19.542Z,9.70
2018-03-24T15:15:48.486Z,9.80
2018-03-24T15:18:16.710Z,9.60
2018-03-24T15:20:44.826Z,9.60
2018-03-24T15:23:14.219Z,9.40
2018-03-24T15:25:43.183Z,9.40
2018-03-24T15:28:11.102Z,9.40
2018-03-24T15:30:59.987Z,9.40
2018-03-24T15:33:39.249Z,9.30
2018-03-24T15:36:18.734Z,9.30
2018-03-24T15:38:46.972Z,9.30
2018-03-24T15:41:15.869Z,9.30
2018-03-24T15:43:43.338Z,9.10
2018-03-24T15:46:10.834Z,9.00
2018-03-24T15:48:38.683Z,9.00
2018-03-24T15:51:06.938Z,8.80
2018-03-24T15:53:34.413Z,8.80
2018-03-24T15:56:02.694Z,8.70
2018-03-24T15:58:30.118Z,8.70
2018-03-24T16:00:57.571Z,8.60
2018-03-24T16:03:25.037Z,8.60
2018-03-24T16:05:52.512Z,8.50
2018-03-24T16:08:19.970Z,8.40
2018-03-24T16:10:48.550Z,8.40
2018-03-24T16:13:16.535Z,8.40
2018-03-24T16:15:44.826Z,8.50
2018-03-24T16:18:12.287Z,8.50
2018-03-24T16:20:39.785Z,8.40
2018-03-24T16:23:07.953Z,8.20
2018-03-24T16:25:35.634Z,8.00
2018-03-24T16:28:03.976Z,7.90
2018-03-24T16:30:31.451Z,7.70
2018-03-24T16:33:00.068Z,7.60
2018-03-24T16:35:28.354Z,7.50
2018-03-24T16:37:55.810Z,7.40
2018-03-24T16:40:23.726Z,7.40
2018-03-24T16:42:52.499Z,7.30
2018-03-24T16:45:20.560Z,7.30
2018-03-24T16:47:48.866Z,7.10
2018-03-24T16:50:16.319Z,7.10
2018-03-24T16:52:43.786Z,7.10
2018-03-24T16:55:12.673Z,7.00
2018-03-24T16:57:41.187Z,7.00
2018-03-24T17:00:09.054Z,6.90
2018-03-24T17:02:37.071Z,6.90
2018-03-24T17:05:04.530Z,6.80
2018-03-24T17:07:33.939Z,6.70
2018-03-24T17:10:02.191Z,6.70
2018-03-24T17:12:30.100Z,6.70
2018-03-24T17:14:58.110Z,6.60
2018-03-24T17:17:25.843Z,6.50
2018-03-24T17:19:54.209Z,6.50
2018-03-24T17:22:21.728Z,6.40
2018-03-24T17:24:49.188Z,6.40
2018-03-24T17:27:17.299Z,6.30
2018-03-24T17:29:44.780Z,6.20
2018-03-24T17:32:13.015Z,6.20
2018-03-24T17:34:40.481Z,6.10
2018-03-24T17:37:07.987Z,6.00
2018-03-24T17:39:36.146Z,6.00
2018-03-24T17:42:03.603Z,5.90
2018-03-24T17:44:31.062Z,5.80
2018-03-24T17:46:59.534Z,5.80
2018-03-24T17:49:27.024Z,5.70
2018-03-24T17:51:54.854Z,5.60
2018-03-24T17:54:22.311Z,5.60
2018-03-24T17:56:49.774Z,5.60
2018-03-24T17:59:17.747Z,5.60
2018-03-24T18:01:46.687Z,5.50
2018-03-24T18:50:56.441Z,5.50
2018-03-24T18:53:23.915Z,4.40
2018-03-24T18:55:51.603Z,4.30
2018-03-24T18:58:19.136Z,4.30
2018-03-24T19:00:47.296Z,4.30
2018-03-24T19:03:15.743Z,4.30
2018-03-24T19:05:43.819Z,4.20
2018-03-24T19:08:12.108Z,4.30
2018-03-24T19:10:39.947Z,4.20
2018-03-24T19:13:08.270Z,4.20
2018-03-24T19:15:35.739Z,4.10
2018-03-24T19:18:03.195Z,4.10
2018-03-24T19:20:31.438Z,4.00
2018-03-24T19:22:58.895Z,4.00
2018-03-24T19:25:26.795Z,3.90
2018-03-24T19:27:55.430Z,3.80
2018-03-24T19:30:23.815Z,3.70
2018-03-24T19:32:51.271Z,3.70
2018-03-24T19:35:18.743Z,3.70
2018-03-24T19:37:47.130Z,3.70
2018-03-24T19:40:14.606Z,3.80
2018-03-24T19:42:43.202Z,3.70
2018-03-24T19:45:10.659Z,3.70
2018-03-24T19:47:38.123Z,3.60
2018-03-24T19:50:06.802Z,3.60
2018-03-24T19:52:35.027Z,3.60
2018-03-24T19:55:02.520Z,3.50
2018-03-24T19:57:30.043Z,3.50
2018-03-24T19:59:57.802Z,3.50
2018-03-24T20:02:26.019Z,3.40
2018-03-24T20:04:53.606Z,3.30
2018-03-24T20:07:22.971Z,3.30
2018-03-24T20:09:51.395Z,3.20
2018-03-24T20:12:18.866Z,3.30
2018-03-24T20:14:47.215Z,3.20
2018-03-24T20:17:14.784Z,3.20
2018-03-24T20:19:43.015Z,3.00
2018-03-24T20:22:10.489Z,3.00
2018-03-24T20:24:38.030Z,2.90
2018-03-24T20:27:05.516Z,2.80
2018-03-24T20:29:33.029Z,2.80
2018-03-24T20:32:01.496Z,2.80
2018-03-24T20:34:29.731Z,2.60
2018-03-24T20:36:57.232Z,2.60
2018-03-24T20:39:25.487Z,2.40
2018-03-24T20:41:54.854Z,2.40
2018-03-24T20:44:22.328Z,2.40
2018-03-24T20:46:49.832Z,2.40
2018-03-24T20:49:18.107Z,2.10
2018-03-24T20:51:46.363Z,1.90
2018-03-24T20:54:14.594Z,1.70
2018-03-24T20:56:42.059Z,1.70
2018-03-24T20:59:09.626Z,1.70
2018-03-24T21:01:37.119Z,1.60
2018-03-24T21:04:05.763Z,1.60
2018-03-24T21:06:33.875Z,1.60
2018-03-24T21:09:01.540Z,1.60
2018-03-24T21:11:29.767Z,1.40
2018-03-24T21:13:57.272Z,1.40
2018-03-24T21:16:24.730Z,1.30
2018-03-24T21:18:52.197Z,1.30
2018-03-24T21:21:19.659Z,1.30
2018-03-24T21:23:47.114Z,1.20
2018-03-24T21:26:15.355Z,1.20
2018-03-24T21:28:43.996Z,1.20
2018-03-24T21:31:12.878Z,1.10
2018-03-24T21:33:41.194Z,1.10
2018-03-24T21:36:08.658Z,1.00
2018-03-24T21:38:37.046Z,1.00
2018-03-24T21:41:04.515Z,1.00
2018-03-24T21:43:31.970Z,0.90
2018-03-24T21:45:59.877Z,0.90
2018-03-24T21:48:28.130Z,0.80
2018-03-24T21:50:55.607Z,0.70
2018-03-24T21:53:24.234Z,0.70
2018-03-24T21:55:51.734Z,0.60
2018-03-24T21:58:19.865Z,0.60
2018-03-24T22:00:47.369Z,0.60
2018-03-24T22:03:14.871Z,0.50
2018-03-24T22:05:42.649Z,0.50
2018-03-24T22:08:10.106Z,0.50
2018-03-24T22:10:37.611Z,0.50
2018-03-24T22:13:05.061Z,0.40
2018-03-24T22:15:32.975Z,0.40
2018-03-24T22:18:00.440Z,0.40
2018-03-24T22:20:27.895Z,0.40
2018-03-24T22:22:56.148Z,0.60
2018-03-24T22:25:24.613Z,0.70
2018-03-24T22:27:52.070Z,0.70
2018-03-24T22:30:19.527Z,0.70
2018-03-24T22:32:47.082Z,0.80
2018-03-24T22:35:15.758Z,0.70
2018-03-24T22:37:44.050Z,0.70
2018-03-24T22:40:12.151Z,0.60
2018-03-24T22:42:40.383Z,0.70
2018-03-24T22:45:08.572Z,0.70
2018-03-24T22:47:36.126Z,0.60
2018-03-24T22:50:03.698Z,0.60
2018-03-24T22:52:32.135Z,0.50
2018-03-24T22:55:00.250Z,0.50
2018-03-24T22:57:28.427Z,0.40
2018-03-24T22:59:55.886Z,0.30
2018-03-24T23:02:23.347Z,0.30
2018-03-24T23:04:51.621Z,0.30
2018-03-24T23:07:19.091Z,0.20
2018-03-24T23:09:46.555Z,0.20
2018-03-24T23:12:14.420Z,0.20
2018-03-24T23:14:43.496Z,0.20
2018-03-24T23:17:11.972Z,0.20
2018-03-24T23:19:39.464Z,0.20
2018-03-24T23:22:08.319Z,0.20
2018-03-24T23:24:35.913Z,0.20
2018-03-24T23:27:04.145Z,0.10
2018-03-24T23:29:32.525Z,0.20
2018-03-24T23:32:00.040Z,0.20
2018-03-24T23:34:29.107Z,0.40
2018-03-24T23:36:56.557Z,0.30
2018-03-24T23:39:24.022Z,0.40
2018-03-24T23:41:51.479Z,0.20
2018-03-24T23:44:19.033Z,0.00
2018-03-24T23:46:46.498Z,-0.10
2018-03-24T23:49:13.950Z,-0.20
2018-03-24T23:51:41.433Z,-0.20
2018-03-24T23:54:10.219Z,0.00
2018-03-24T23:56:38.678Z,0.10
2018-03-24T23:59:06.685Z,0.00
